sensor_id;sensor_type;location;lat;lon;timestamp;P1;durP1;ratioP1;P2;durP2;ratioP2
80494;SDS011;69819;48.798;11.770;2023-07-13T00:00:02;1.65;;;1.55;;
80494;SDS011;69819;48.798;11.770;2023-07-13T00:02:33;1.73;;;1.63;;
80494;SDS011;69819;48.798;11.770;2023-07-13T00:04:59;2.30;;;2.10;;
80494;SDS011;69819;48.798;11.770;2023-07-13T00:07:25;2.45;;;2.05;;
80494;SDS011;69819;48.798;11.770;2023-07-13T00:09:51;2.08;;;1.90;;
80494;SDS011;69819;48.798;11.770;2023-07-13T00:15:02;2.25;;;1.85;;
80494;SDS011;69819;48.798;11.770;2023-07-13T00:17:37;1.70;;;1.60;;
80494;SDS011;69819;48.798;11.770;2023-07-13T00:20:04;1.90;;;1.80;;
80494;SDS011;69819;48.798;11.770;2023-07-13T00:22:32;1.80;;;1.70;;
80494;SDS011;69819;48.798;11.770;2023-07-13T00:24:58;1.65;;;1.50;;
80494;SDS011;69819;48.798;11.770;2023-07-13T00:27:24;2.20;;;1.67;;
80494;SDS011;69819;48.798;11.770;2023-07-13T00:29:51;1.70;;;1.60;;
80494;SDS011;69819;48.798;11.770;2023-07-13T00:32:18;2.15;;;1.80;;
80494;SDS011;69819;48.798;11.770;2023-07-13T00:34:44;2.22;;;1.70;;
80494;SDS011;69819;48.798;11.770;2023-07-13T00:37:10;1.73;;;1.63;;
80494;SDS011;69819;48.798;11.770;2023-07-13T00:39:36;2.15;;;1.40;;
80494;SDS011;69819;48.798;11.770;2023-07-13T00:42:03;1.65;;;1.55;;
80494;SDS011;69819;48.798;11.770;2023-07-13T00:44:30;2.80;;;1.63;;
80494;SDS011;69819;48.798;11.770;2023-07-13T00:46:56;2.08;;;1.45;;
80494;SDS011;69819;48.798;11.770;2023-07-13T00:49:24;2.58;;;1.63;;
80494;SDS011;69819;48.798;11.770;2023-07-13T00:54:38;2.40;;;1.90;;
80494;SDS011;69819;48.798;11.770;2023-07-13T00:57:11;2.70;;;2.08;;
80494;SDS011;69819;48.798;11.770;2023-07-13T00:59:43;3.38;;;1.50;;
80494;SDS011;69819;48.798;11.770;2023-07-13T01:02:14;1.77;;;1.65;;
80494;SDS011;69819;48.798;11.770;2023-07-13T01:04:41;1.67;;;1.58;;
80494;SDS011;69819;48.798;11.770;2023-07-13T01:07:09;2.08;;;1.95;;
80494;SDS011;69819;48.798;11.770;2023-07-13T01:09:37;2.05;;;1.73;;
80494;SDS011;69819;48.798;11.770;2023-07-13T01:12:03;2.30;;;2.10;;
80494;SDS011;69819;48.798;11.770;2023-07-13T01:14:30;2.35;;;1.70;;
80494;SDS011;69819;48.798;11.770;2023-07-13T01:16:56;4.35;;;1.73;;
80494;SDS011;69819;48.798;11.770;2023-07-13T01:22:11;3.30;;;1.92;;
80494;SDS011;69819;48.798;11.770;2023-07-13T01:24:41;3.53;;;1.55;;
80494;SDS011;69819;48.798;11.770;2023-07-13T01:27:13;3.67;;;1.50;;
80494;SDS011;69819;48.798;11.770;2023-07-13T01:29:45;2.22;;;1.55;;
80494;SDS011;69819;48.798;11.770;2023-07-13T01:32:14;2.78;;;1.60;;
80494;SDS011;69819;48.798;11.770;2023-07-13T01:34:47;2.88;;;1.33;;
80494;SDS011;69819;48.798;11.770;2023-07-13T01:37:14;2.25;;;1.42;;
80494;SDS011;69819;48.798;11.770;2023-07-13T01:39:40;1.98;;;1.42;;
80494;SDS011;69819;48.798;11.770;2023-07-13T01:42:06;2.85;;;1.70;;
80494;SDS011;69819;48.798;11.770;2023-07-13T01:44:32;3.20;;;1.40;;
80494;SDS011;69819;48.798;11.770;2023-07-13T01:46:58;1.92;;;1.40;;
80494;SDS011;69819;48.798;11.770;2023-07-13T01:49:26;3.05;;;1.73;;
80494;SDS011;69819;48.798;11.770;2023-07-13T01:51:52;1.42;;;1.35;;
80494;SDS011;69819;48.798;11.770;2023-07-13T01:54:18;1.55;;;1.45;;
80494;SDS011;69819;48.798;11.770;2023-07-13T01:56:43;1.60;;;1.50;;
80494;SDS011;69819;48.798;11.770;2023-07-13T01:59:09;1.48;;;1.38;;
80494;SDS011;69819;48.798;11.770;2023-07-13T02:01:35;1.50;;;1.40;;
80494;SDS011;69819;48.798;11.770;2023-07-13T02:04:02;3.40;;;1.63;;
80494;SDS011;69819;48.798;11.770;2023-07-13T02:06:28;1.60;;;1.50;;
80494;SDS011;69819;48.798;11.770;2023-07-13T02:08:54;1.80;;;1.70;;
80494;SDS011;69819;48.798;11.770;2023-07-13T02:11:20;3.92;;;1.52;;
80494;SDS011;69819;48.798;11.770;2023-07-13T02:13:46;2.53;;;1.30;;
80494;SDS011;69819;48.798;11.770;2023-07-13T02:16:12;2.25;;;1.60;;
80494;SDS011;69819;48.798;11.770;2023-07-13T02:18:38;3.55;;;1.42;;
80494;SDS011;69819;48.798;11.770;2023-07-13T02:21:04;2.00;;;1.50;;
80494;SDS011;69819;48.798;11.770;2023-07-13T02:23:30;2.80;;;1.90;;
80494;SDS011;69819;48.798;11.770;2023-07-13T02:25:56;3.40;;;1.67;;
80494;SDS011;69819;48.798;11.770;2023-07-13T02:28:23;3.13;;;1.50;;
80494;SDS011;69819;48.798;11.770;2023-07-13T02:30:49;3.03;;;1.75;;
80494;SDS011;69819;48.798;11.770;2023-07-13T02:33:15;1.95;;;1.80;;
80494;SDS011;69819;48.798;11.770;2023-07-13T02:35:41;3.15;;;1.83;;
80494;SDS011;69819;48.798;11.770;2023-07-13T02:38:07;3.20;;;1.73;;
80494;SDS011;69819;48.798;11.770;2023-07-13T02:40:33;3.08;;;1.80;;
80494;SDS011;69819;48.798;11.770;2023-07-13T02:43:00;1.45;;;1.35;;
80494;SDS011;69819;48.798;11.770;2023-07-13T02:45:27;2.30;;;1.45;;
80494;SDS011;69819;48.798;11.770;2023-07-13T02:47:53;5.13;;;1.50;;
80494;SDS011;69819;48.798;11.770;2023-07-13T02:50:19;2.22;;;1.67;;
80494;SDS011;69819;48.798;11.770;2023-07-13T02:52:45;2.80;;;1.60;;
80494;SDS011;69819;48.798;11.770;2023-07-13T02:55:11;2.47;;;1.80;;
80494;SDS011;69819;48.798;11.770;2023-07-13T02:57:37;2.60;;;1.60;;
80494;SDS011;69819;48.798;11.770;2023-07-13T03:00:03;2.10;;;1.60;;
80494;SDS011;69819;48.798;11.770;2023-07-13T03:02:31;2.03;;;1.92;;
80494;SDS011;69819;48.798;11.770;2023-07-13T03:04:58;2.67;;;1.77;;
80494;SDS011;69819;48.798;11.770;2023-07-13T03:07:24;3.47;;;2.10;;
80494;SDS011;69819;48.798;11.770;2023-07-13T03:09:55;3.10;;;1.77;;
80494;SDS011;69819;48.798;11.770;2023-07-13T03:12:22;2.13;;;1.88;;
80494;SDS011;69819;48.798;11.770;2023-07-13T03:14:49;2.88;;;2.10;;
80494;SDS011;69819;48.798;11.770;2023-07-13T03:17:16;3.90;;;2.03;;
80494;SDS011;69819;48.798;11.770;2023-07-13T03:19:42;2.72;;;1.95;;
80494;SDS011;69819;48.798;11.770;2023-07-13T03:22:08;3.53;;;2.00;;
80494;SDS011;69819;48.798;11.770;2023-07-13T03:24:34;3.17;;;1.98;;
80494;SDS011;69819;48.798;11.770;2023-07-13T03:27:03;3.20;;;2.40;;
80494;SDS011;69819;48.798;11.770;2023-07-13T03:29:30;2.20;;;1.98;;
80494;SDS011;69819;48.798;11.770;2023-07-13T03:31:56;2.05;;;1.85;;
80494;SDS011;69819;48.798;11.770;2023-07-13T03:34:22;2.58;;;2.00;;
80494;SDS011;69819;48.798;11.770;2023-07-13T03:36:48;2.53;;;2.00;;
80494;SDS011;69819;48.798;11.770;2023-07-13T03:39:14;3.10;;;2.20;;
80494;SDS011;69819;48.798;11.770;2023-07-13T03:41:40;5.18;;;2.88;;
80494;SDS011;69819;48.798;11.770;2023-07-13T03:44:06;2.65;;;2.33;;
80494;SDS011;69819;48.798;11.770;2023-07-13T03:46:32;2.67;;;2.05;;
80494;SDS011;69819;48.798;11.770;2023-07-13T03:48:58;5.35;;;1.92;;
80494;SDS011;69819;48.798;11.770;2023-07-13T03:51:24;4.03;;;2.97;;
80494;SDS011;69819;48.798;11.770;2023-07-13T03:53:50;2.28;;;1.98;;
80494;SDS011;69819;48.798;11.770;2023-07-13T03:56:16;3.08;;;2.10;;
80494;SDS011;69819;48.798;11.770;2023-07-13T03:58:45;2.50;;;1.88;;
80494;SDS011;69819;48.798;11.770;2023-07-13T04:01:14;3.97;;;2.00;;
80494;SDS011;69819;48.798;11.770;2023-07-13T04:03:42;3.13;;;1.92;;
80494;SDS011;69819;48.798;11.770;2023-07-13T04:06:12;3.88;;;2.22;;
80494;SDS011;69819;48.798;11.770;2023-07-13T04:08:45;4.97;;;2.40;;
80494;SDS011;69819;48.798;11.770;2023-07-13T04:11:18;4.32;;;2.90;;
80494;SDS011;69819;48.798;11.770;2023-07-13T04:13:45;3.90;;;2.00;;
80494;SDS011;69819;48.798;11.770;2023-07-13T04:16:12;3.08;;;1.95;;
80494;SDS011;69819;48.798;11.770;2023-07-13T04:18:40;5.78;;;2.35;;
80494;SDS011;69819;48.798;11.770;2023-07-13T04:21:07;3.15;;;2.20;;
80494;SDS011;69819;48.798;11.770;2023-07-13T04:23:34;3.55;;;2.25;;
80494;SDS011;69819;48.798;11.770;2023-07-13T04:26:02;3.60;;;2.25;;
80494;SDS011;69819;48.798;11.770;2023-07-13T04:28:28;3.53;;;2.28;;
80494;SDS011;69819;48.798;11.770;2023-07-13T04:30:54;4.25;;;1.90;;
80494;SDS011;69819;48.798;11.770;2023-07-13T04:33:20;4.05;;;1.95;;
80494;SDS011;69819;48.798;11.770;2023-07-13T04:35:52;2.17;;;1.92;;
80494;SDS011;69819;48.798;11.770;2023-07-13T04:38:21;3.00;;;1.90;;
80494;SDS011;69819;48.798;11.770;2023-07-13T04:40:49;3.45;;;1.98;;
80494;SDS011;69819;48.798;11.770;2023-07-13T04:43:16;3.03;;;1.80;;
80494;SDS011;69819;48.798;11.770;2023-07-13T04:45:42;4.53;;;2.42;;
80494;SDS011;69819;48.798;11.770;2023-07-13T04:48:08;4.22;;;2.17;;
80494;SDS011;69819;48.798;11.770;2023-07-13T04:50:37;3.80;;;2.28;;
80494;SDS011;69819;48.798;11.770;2023-07-13T04:53:04;6.10;;;2.47;;
80494;SDS011;69819;48.798;11.770;2023-07-13T04:55:31;2.78;;;2.38;;
80494;SDS011;69819;48.798;11.770;2023-07-13T04:57:57;3.30;;;2.10;;
80494;SDS011;69819;48.798;11.770;2023-07-13T05:00:25;4.13;;;2.05;;
80494;SDS011;69819;48.798;11.770;2023-07-13T05:02:53;3.67;;;2.10;;
80494;SDS011;69819;48.798;11.770;2023-07-13T05:05:21;2.67;;;1.90;;
80494;SDS011;69819;48.798;11.770;2023-07-13T05:07:47;3.28;;;2.00;;
80494;SDS011;69819;48.798;11.770;2023-07-13T05:10:12;3.25;;;1.75;;
80494;SDS011;69819;48.798;11.770;2023-07-13T05:12:38;2.28;;;1.98;;
80494;SDS011;69819;48.798;11.770;2023-07-13T05:15:04;4.05;;;1.90;;
80494;SDS011;69819;48.798;11.770;2023-07-13T05:17:31;2.42;;;1.48;;
80494;SDS011;69819;48.798;11.770;2023-07-13T05:19:57;5.45;;;1.90;;
80494;SDS011;69819;48.798;11.770;2023-07-13T05:22:23;2.20;;;1.52;;
80494;SDS011;69819;48.798;11.770;2023-07-13T05:24:48;3.60;;;1.67;;
80494;SDS011;69819;48.798;11.770;2023-07-13T05:27:14;1.42;;;1.33;;
80494;SDS011;69819;48.798;11.770;2023-07-13T05:29:40;2.58;;;1.50;;
80494;SDS011;69819;48.798;11.770;2023-07-13T05:32:06;2.05;;;1.13;;
80494;SDS011;69819;48.798;11.770;2023-07-13T05:34:32;1.30;;;1.20;;
80494;SDS011;69819;48.798;11.770;2023-07-13T05:36:58;2.17;;;1.40;;
80494;SDS011;69819;48.798;11.770;2023-07-13T05:39:24;1.42;;;1.13;;
80494;SDS011;69819;48.798;11.770;2023-07-13T05:41:51;1.45;;;1.10;;
80494;SDS011;69819;48.798;11.770;2023-07-13T05:44:17;2.50;;;1.27;;
80494;SDS011;69819;48.798;11.770;2023-07-13T05:46:43;1.92;;;1.65;;
80494;SDS011;69819;48.798;11.770;2023-07-13T05:49:10;2.38;;;1.40;;
80494;SDS011;69819;48.798;11.770;2023-07-13T05:51:36;1.38;;;1.25;;
80494;SDS011;69819;48.798;11.770;2023-07-13T05:54:02;2.45;;;1.20;;
80494;SDS011;69819;48.798;11.770;2023-07-13T05:56:28;1.65;;;1.08;;
80494;SDS011;69819;48.798;11.770;2023-07-13T05:58:54;1.40;;;1.10;;
80494;SDS011;69819;48.798;11.770;2023-07-13T06:01:20;1.25;;;1.05;;
80494;SDS011;69819;48.798;11.770;2023-07-13T06:03:47;1.30;;;1.17;;
80494;SDS011;69819;48.798;11.770;2023-07-13T06:06:13;1.27;;;1.17;;
80494;SDS011;69819;48.798;11.770;2023-07-13T06:08:39;1.33;;;1.00;;
80494;SDS011;69819;48.798;11.770;2023-07-13T06:13:44;0.98;;;0.93;;
80494;SDS011;69819;48.798;11.770;2023-07-13T06:16:12;1.30;;;1.20;;
80494;SDS011;69819;48.798;11.770;2023-07-13T06:18:39;1.55;;;1.20;;
80494;SDS011;69819;48.798;11.770;2023-07-13T06:21:10;2.33;;;1.30;;
80494;SDS011;69819;48.798;11.770;2023-07-13T06:23:42;1.85;;;1.10;;
80494;SDS011;69819;48.798;11.770;2023-07-13T06:26:09;1.20;;;0.90;;
80494;SDS011;69819;48.798;11.770;2023-07-13T06:28:35;1.15;;;1.10;;
80494;SDS011;69819;48.798;11.770;2023-07-13T06:31:04;1.50;;;1.30;;
80494;SDS011;69819;48.798;11.770;2023-07-13T06:33:37;0.98;;;0.75;;
80494;SDS011;69819;48.798;11.770;2023-07-13T06:36:03;1.00;;;0.80;;
80494;SDS011;69819;48.798;11.770;2023-07-13T06:38:32;0.68;;;0.68;;
80494;SDS011;69819;48.798;11.770;2023-07-13T06:40:59;2.50;;;1.23;;
80494;SDS011;69819;48.798;11.770;2023-07-13T06:43:25;1.75;;;0.90;;
80494;SDS011;69819;48.798;11.770;2023-07-13T06:45:53;2.25;;;1.10;;
80494;SDS011;69819;48.798;11.770;2023-07-13T06:48:20;1.20;;;0.80;;
80494;SDS011;69819;48.798;11.770;2023-07-13T06:50:47;1.20;;;0.80;;
80494;SDS011;69819;48.798;11.770;2023-07-13T06:53:17;1.40;;;0.85;;
80494;SDS011;69819;48.798;11.770;2023-07-13T06:55:44;1.60;;;0.93;;
80494;SDS011;69819;48.798;11.770;2023-07-13T06:58:10;0.75;;;0.70;;
80494;SDS011;69819;48.798;11.770;2023-07-13T07:00:38;1.60;;;0.90;;
80494;SDS011;69819;48.798;11.770;2023-07-13T07:03:05;1.42;;;0.77;;
80494;SDS011;69819;48.798;11.770;2023-07-13T07:05:31;0.95;;;0.80;;
80494;SDS011;69819;48.798;11.770;2023-07-13T07:07:56;1.65;;;0.90;;
80494;SDS011;69819;48.798;11.770;2023-07-13T07:10:22;1.33;;;0.80;;
80494;SDS011;69819;48.798;11.770;2023-07-13T07:12:48;0.80;;;0.75;;
80494;SDS011;69819;48.798;11.770;2023-07-13T07:15:14;2.00;;;0.90;;
80494;SDS011;69819;48.798;11.770;2023-07-13T07:17:41;2.10;;;0.70;;
80494;SDS011;69819;48.798;11.770;2023-07-13T07:20:07;1.58;;;0.88;;
80494;SDS011;69819;48.798;11.770;2023-07-13T07:22:33;2.20;;;0.80;;
80494;SDS011;69819;48.798;11.770;2023-07-13T07:24:59;2.10;;;0.70;;
80494;SDS011;69819;48.798;11.770;2023-07-13T07:27:25;0.80;;;0.60;;
80494;SDS011;69819;48.798;11.770;2023-07-13T07:29:51;1.23;;;0.70;;
80494;SDS011;69819;48.798;11.770;2023-07-13T07:32:18;0.88;;;0.65;;
80494;SDS011;69819;48.798;11.770;2023-07-13T07:34:45;1.05;;;0.68;;
80494;SDS011;69819;48.798;11.770;2023-07-13T07:37:12;0.80;;;0.73;;
80494;SDS011;69819;48.798;11.770;2023-07-13T07:39:39;3.33;;;0.80;;
80494;SDS011;69819;48.798;11.770;2023-07-13T07:42:05;1.02;;;0.63;;
80494;SDS011;69819;48.798;11.770;2023-07-13T07:44:32;0.70;;;0.70;;
80494;SDS011;69819;48.798;11.770;2023-07-13T07:46:58;0.82;;;0.55;;
80494;SDS011;69819;48.798;11.770;2023-07-13T07:49:24;1.25;;;0.70;;
80494;SDS011;69819;48.798;11.770;2023-07-13T07:51:50;1.27;;;0.68;;
80494;SDS011;69819;48.798;11.770;2023-07-13T07:54:16;1.38;;;0.90;;
80494;SDS011;69819;48.798;11.770;2023-07-13T07:56:42;2.10;;;0.95;;
80494;SDS011;69819;48.798;11.770;2023-07-13T07:59:09;0.60;;;0.60;;
80494;SDS011;69819;48.798;11.770;2023-07-13T08:01:35;1.13;;;0.80;;
80494;SDS011;69819;48.798;11.770;2023-07-13T08:04:01;0.80;;;0.70;;
80494;SDS011;69819;48.798;11.770;2023-07-13T08:06:27;1.17;;;0.70;;
80494;SDS011;69819;48.798;11.770;2023-07-13T08:08:54;0.77;;;0.75;;
80494;SDS011;69819;48.798;11.770;2023-07-13T08:11:20;1.95;;;0.95;;
80494;SDS011;69819;48.798;11.770;2023-07-13T08:13:47;0.70;;;0.70;;
80494;SDS011;69819;48.798;11.770;2023-07-13T08:16:14;0.82;;;0.60;;
80494;SDS011;69819;48.798;11.770;2023-07-13T08:18:40;0.52;;;0.52;;
80494;SDS011;69819;48.798;11.770;2023-07-13T08:21:06;0.88;;;0.70;;
80494;SDS011;69819;48.798;11.770;2023-07-13T08:23:34;1.52;;;0.70;;
80494;SDS011;69819;48.798;11.770;2023-07-13T08:26:00;1.25;;;0.70;;
80494;SDS011;69819;48.798;11.770;2023-07-13T08:28:28;4.15;;;0.80;;
80494;SDS011;69819;48.798;11.770;2023-07-13T08:30:54;0.95;;;0.60;;
80494;SDS011;69819;48.798;11.770;2023-07-13T08:33:21;0.70;;;0.70;;
80494;SDS011;69819;48.798;11.770;2023-07-13T08:35:50;0.90;;;0.57;;
80494;SDS011;69819;48.798;11.770;2023-07-13T08:38:17;2.60;;;0.90;;
80494;SDS011;69819;48.798;11.770;2023-07-13T08:40:43;0.68;;;0.60;;
80494;SDS011;69819;48.798;11.770;2023-07-13T08:43:19;1.38;;;0.80;;
80494;SDS011;69819;48.798;11.770;2023-07-13T08:51:46;1.70;;;0.70;;
80494;SDS011;69819;48.798;11.770;2023-07-13T08:54:34;0.88;;;0.60;;
80494;SDS011;69819;48.798;11.770;2023-07-13T08:57:14;1.08;;;0.60;;
80494;SDS011;69819;48.798;11.770;2023-07-13T08:59:55;1.08;;;0.70;;
80494;SDS011;69819;48.798;11.770;2023-07-13T09:05:36;0.80;;;0.57;;
80494;SDS011;69819;48.798;11.770;2023-07-13T09:17:12;0.73;;;0.57;;
80494;SDS011;69819;48.798;11.770;2023-07-13T09:19:54;0.93;;;0.75;;
80494;SDS011;69819;48.798;11.770;2023-07-13T09:22:52;0.50;;;0.50;;
80494;SDS011;69819;48.798;11.770;2023-07-13T09:25:35;1.13;;;0.50;;
80494;SDS011;69819;48.798;11.770;2023-07-13T09:28:08;1.87;;;0.90;;
80494;SDS011;69819;48.798;11.770;2023-07-13T09:33:23;0.55;;;0.40;;
80494;SDS011;69819;48.798;11.770;2023-07-13T09:35:50;0.98;;;0.52;;
80494;SDS011;69819;48.798;11.770;2023-07-13T09:38:17;0.43;;;0.43;;
80494;SDS011;69819;48.798;11.770;2023-07-13T09:40:53;0.43;;;0.40;;
80494;SDS011;69819;48.798;11.770;2023-07-13T09:43:25;0.95;;;0.50;;
80494;SDS011;69819;48.798;11.770;2023-07-13T09:45:54;1.25;;;0.40;;
80494;SDS011;69819;48.798;11.770;2023-07-13T09:48:21;0.85;;;0.40;;
80494;SDS011;69819;48.798;11.770;2023-07-13T09:50:47;0.40;;;0.40;;
80494;SDS011;69819;48.798;11.770;2023-07-13T09:53:14;0.30;;;0.30;;
80494;SDS011;69819;48.798;11.770;2023-07-13T09:55:44;0.73;;;0.43;;
80494;SDS011;69819;48.798;11.770;2023-07-13T09:58:20;0.93;;;0.60;;
80494;SDS011;69819;48.798;11.770;2023-07-13T10:01:00;1.20;;;0.45;;
80494;SDS011;69819;48.798;11.770;2023-07-13T10:03:30;1.63;;;0.38;;
80494;SDS011;69819;48.798;11.770;2023-07-13T10:08:40;0.45;;;0.45;;
80494;SDS011;69819;48.798;11.770;2023-07-13T10:11:10;0.63;;;0.40;;
80494;SDS011;69819;48.798;11.770;2023-07-13T10:13:50;0.45;;;0.30;;
80494;SDS011;69819;48.798;11.770;2023-07-13T10:16:25;0.63;;;0.50;;
80494;SDS011;69819;48.798;11.770;2023-07-13T10:19:15;0.40;;;0.40;;
80494;SDS011;69819;48.798;11.770;2023-07-13T10:21:54;0.45;;;0.45;;
80494;SDS011;69819;48.798;11.770;2023-07-13T10:24:33;3.38;;;0.70;;
80494;SDS011;69819;48.798;11.770;2023-07-13T10:27:16;0.45;;;0.40;;
80494;SDS011;69819;48.798;11.770;2023-07-13T10:32:45;0.82;;;0.30;;
80494;SDS011;69819;48.798;11.770;2023-07-13T10:35:13;0.50;;;0.50;;
80494;SDS011;69819;48.798;11.770;2023-07-13T10:37:45;0.63;;;0.50;;
80494;SDS011;69819;48.798;11.770;2023-07-13T10:40:31;0.68;;;0.50;;
80494;SDS011;69819;48.798;11.770;2023-07-13T10:43:27;1.20;;;0.57;;
80494;SDS011;69819;48.798;11.770;2023-07-13T10:46:03;1.05;;;0.60;;
80494;SDS011;69819;48.798;11.770;2023-07-13T10:48:37;0.85;;;0.50;;
80494;SDS011;69819;48.798;11.770;2023-07-13T10:51:06;1.00;;;0.50;;
80494;SDS011;69819;48.798;11.770;2023-07-13T10:53:36;1.00;;;0.57;;
80494;SDS011;69819;48.798;11.770;2023-07-13T10:56:50;0.60;;;0.60;;
80494;SDS011;69819;48.798;11.770;2023-07-13T10:59:10;0.68;;;0.65;;
80494;SDS011;69819;48.798;11.770;2023-07-13T11:01:41;0.90;;;0.50;;
80494;SDS011;69819;48.798;11.770;2023-07-13T11:04:21;1.05;;;0.55;;
80494;SDS011;69819;48.798;11.770;2023-07-13T11:06:50;0.57;;;0.45;;
80494;SDS011;69819;48.798;11.770;2023-07-13T11:10:00;0.98;;;0.50;;
80494;SDS011;69819;48.798;11.770;2023-07-13T11:12:48;0.82;;;0.57;;
80494;SDS011;69819;48.798;11.770;2023-07-13T11:16:04;0.68;;;0.68;;
80494;SDS011;69819;48.798;11.770;2023-07-13T11:18:20;0.60;;;0.50;;
80494;SDS011;69819;48.798;11.770;2023-07-13T11:20:50;1.40;;;0.68;;
80494;SDS011;69819;48.798;11.770;2023-07-13T11:23:18;1.85;;;0.57;;
80494;SDS011;69819;48.798;11.770;2023-07-13T11:25:52;0.60;;;0.50;;
80494;SDS011;69819;48.798;11.770;2023-07-13T11:28:21;0.50;;;0.50;;
80494;SDS011;69819;48.798;11.770;2023-07-13T11:36:04;1.23;;;0.65;;
80494;SDS011;69819;48.798;11.770;2023-07-13T11:38:39;0.80;;;0.60;;
80494;SDS011;69819;48.798;11.770;2023-07-13T11:41:27;0.88;;;0.43;;
80494;SDS011;69819;48.798;11.770;2023-07-13T11:44:14;1.05;;;0.43;;
80494;SDS011;69819;48.798;11.770;2023-07-13T11:46:47;0.98;;;0.63;;
80494;SDS011;69819;48.798;11.770;2023-07-13T11:49:18;0.60;;;0.60;;
80494;SDS011;69819;48.798;11.770;2023-07-13T11:51:47;1.02;;;0.60;;
80494;SDS011;69819;48.798;11.770;2023-07-13T11:56:58;1.02;;;0.55;;
80494;SDS011;69819;48.798;11.770;2023-07-13T11:59:48;0.50;;;0.50;;
80494;SDS011;69819;48.798;11.770;2023-07-13T12:02:39;0.50;;;0.50;;
80494;SDS011;69819;48.798;11.770;2023-07-13T12:05:09;0.65;;;0.65;;
80494;SDS011;69819;48.798;11.770;2023-07-13T12:07:39;1.00;;;0.63;;
80494;SDS011;69819;48.798;11.770;2023-07-13T12:12:34;0.75;;;0.70;;
80494;SDS011;69819;48.798;11.770;2023-07-13T12:15:08;0.52;;;0.50;;
80494;SDS011;69819;48.798;11.770;2023-07-13T12:17:37;0.40;;;0.40;;
80494;SDS011;69819;48.798;11.770;2023-07-13T12:20:07;0.57;;;0.57;;
80494;SDS011;69819;48.798;11.770;2023-07-13T12:23:07;0.98;;;0.88;;
80494;SDS011;69819;48.798;11.770;2023-07-13T12:25:52;0.80;;;0.50;;
80494;SDS011;69819;48.798;11.770;2023-07-13T12:29:04;0.82;;;0.68;;
80494;SDS011;69819;48.798;11.770;2023-07-13T12:31:24;0.50;;;0.50;;
80494;SDS011;69819;48.798;11.770;2023-07-13T12:34:13;1.05;;;0.60;;
80494;SDS011;69819;48.798;11.770;2023-07-13T12:37:02;1.30;;;0.77;;
80494;SDS011;69819;48.798;11.770;2023-07-13T12:39:29;0.90;;;0.60;;
80494;SDS011;69819;48.798;11.770;2023-07-13T12:44:49;0.82;;;0.60;;
80494;SDS011;69819;48.798;11.770;2023-07-13T12:47:19;1.23;;;0.90;;
80494;SDS011;69819;48.798;11.770;2023-07-13T12:49:57;0.93;;;0.70;;
80494;SDS011;69819;48.798;11.770;2023-07-13T12:52:30;0.60;;;0.50;;
80494;SDS011;69819;48.798;11.770;2023-07-13T12:54:59;1.52;;;0.65;;
80494;SDS011;69819;48.798;11.770;2023-07-13T12:57:41;0.98;;;0.60;;
80494;SDS011;69819;48.798;11.770;2023-07-13T13:02:57;1.40;;;0.73;;
80494;SDS011;69819;48.798;11.770;2023-07-13T13:05:30;1.15;;;0.68;;
80494;SDS011;69819;48.798;11.770;2023-07-13T13:07:58;1.20;;;0.65;;
80494;SDS011;69819;48.798;11.770;2023-07-13T13:10:25;0.60;;;0.55;;
80494;SDS011;69819;48.798;11.770;2023-07-13T13:12:51;0.55;;;0.55;;
80494;SDS011;69819;48.798;11.770;2023-07-13T13:15:18;0.50;;;0.50;;
80494;SDS011;69819;48.798;11.770;2023-07-13T13:17:46;2.13;;;0.70;;
80494;SDS011;69819;48.798;11.770;2023-07-13T13:20:16;0.40;;;0.40;;
80494;SDS011;69819;48.798;11.770;2023-07-13T13:22:46;0.60;;;0.60;;
80494;SDS011;69819;48.798;11.770;2023-07-13T13:25:14;0.75;;;0.63;;
80494;SDS011;69819;48.798;11.770;2023-07-13T13:27:41;0.80;;;0.70;;
80494;SDS011;69819;48.798;11.770;2023-07-13T13:30:13;0.77;;;0.57;;
80494;SDS011;69819;48.798;11.770;2023-07-13T13:32:43;0.60;;;0.60;;
80494;SDS011;69819;48.798;11.770;2023-07-13T13:35:15;0.70;;;0.70;;
80494;SDS011;69819;48.798;11.770;2023-07-13T13:37:44;0.50;;;0.50;;
80494;SDS011;69819;48.798;11.770;2023-07-13T13:40:16;1.67;;;0.65;;
80494;SDS011;69819;48.798;11.770;2023-07-13T13:42:45;1.27;;;0.90;;
80494;SDS011;69819;48.798;11.770;2023-07-13T13:45:11;0.65;;;0.65;;
80494;SDS011;69819;48.798;11.770;2023-07-13T13:47:38;0.90;;;0.70;;
80494;SDS011;69819;48.798;11.770;2023-07-13T13:50:16;0.63;;;0.63;;
80494;SDS011;69819;48.798;11.770;2023-07-13T13:52:47;1.50;;;0.70;;
80494;SDS011;69819;48.798;11.770;2023-07-13T14:00:15;1.13;;;0.60;;
80494;SDS011;69819;48.798;11.770;2023-07-13T14:02:44;2.33;;;0.63;;
80494;SDS011;69819;48.798;11.770;2023-07-13T14:05:13;1.02;;;0.70;;
80494;SDS011;69819;48.798;11.770;2023-07-13T14:07:48;0.57;;;0.57;;
80494;SDS011;69819;48.798;11.770;2023-07-13T14:10:16;1.08;;;0.80;;
80494;SDS011;69819;48.798;11.770;2023-07-13T14:12:44;0.47;;;0.40;;
80494;SDS011;69819;48.798;11.770;2023-07-13T14:15:26;0.70;;;0.50;;
80494;SDS011;69819;48.798;11.770;2023-07-13T14:17:57;0.52;;;0.52;;
80494;SDS011;69819;48.798;11.770;2023-07-13T14:20:23;1.38;;;0.70;;
80494;SDS011;69819;48.798;11.770;2023-07-13T14:22:51;1.13;;;0.60;;
80494;SDS011;69819;48.798;11.770;2023-07-13T14:25:18;0.60;;;0.60;;
80494;SDS011;69819;48.798;11.770;2023-07-13T14:27:47;1.17;;;0.68;;
80494;SDS011;69819;48.798;11.770;2023-07-13T14:30:21;0.80;;;0.80;;
80494;SDS011;69819;48.798;11.770;2023-07-13T14:32:48;0.70;;;0.60;;
80494;SDS011;69819;48.798;11.770;2023-07-13T14:35:18;0.93;;;0.57;;
80494;SDS011;69819;48.798;11.770;2023-07-13T14:37:48;0.45;;;0.45;;
80494;SDS011;69819;48.798;11.770;2023-07-13T14:40:24;0.73;;;0.60;;
80494;SDS011;69819;48.798;11.770;2023-07-13T14:42:55;0.70;;;0.70;;
80494;SDS011;69819;48.798;11.770;2023-07-13T14:45:21;0.55;;;0.55;;
80494;SDS011;69819;48.798;11.770;2023-07-13T14:47:47;0.60;;;0.50;;
80494;SDS011;69819;48.798;11.770;2023-07-13T14:50:14;2.58;;;0.77;;
80494;SDS011;69819;48.798;11.770;2023-07-13T14:52:57;0.70;;;0.68;;
80494;SDS011;69819;48.798;11.770;2023-07-13T14:55:23;0.93;;;0.50;;
80494;SDS011;69819;48.798;11.770;2023-07-13T14:57:51;0.95;;;0.70;;
80494;SDS011;69819;48.798;11.770;2023-07-13T15:00:18;0.57;;;0.57;;
80494;SDS011;69819;48.798;11.770;2023-07-13T15:02:53;0.57;;;0.45;;
80494;SDS011;69819;48.798;11.770;2023-07-13T15:05:26;0.63;;;0.63;;
80494;SDS011;69819;48.798;11.770;2023-07-13T15:07:57;0.60;;;0.57;;
80494;SDS011;69819;48.798;11.770;2023-07-13T15:10:28;1.67;;;0.70;;
80494;SDS011;69819;48.798;11.770;2023-07-13T15:12:58;0.60;;;0.52;;
80494;SDS011;69819;48.798;11.770;2023-07-13T15:15:49;1.27;;;0.68;;
80494;SDS011;69819;48.798;11.770;2023-07-13T15:18:19;0.85;;;0.50;;
80494;SDS011;69819;48.798;11.770;2023-07-13T15:20:48;0.80;;;0.60;;
80494;SDS011;69819;48.798;11.770;2023-07-13T15:23:17;0.70;;;0.70;;
80494;SDS011;69819;48.798;11.770;2023-07-13T15:25:44;0.60;;;0.60;;
80494;SDS011;69819;48.798;11.770;2023-07-13T15:28:11;0.63;;;0.63;;
80494;SDS011;69819;48.798;11.770;2023-07-13T15:33:10;0.57;;;0.50;;
80494;SDS011;69819;48.798;11.770;2023-07-13T15:35:44;0.70;;;0.70;;
80494;SDS011;69819;48.798;11.770;2023-07-13T15:38:14;1.15;;;0.70;;
80494;SDS011;69819;48.798;11.770;2023-07-13T15:40:46;0.70;;;0.70;;
80494;SDS011;69819;48.798;11.770;2023-07-13T15:43:13;0.63;;;0.52;;
80494;SDS011;69819;48.798;11.770;2023-07-13T15:45:41;0.77;;;0.70;;
80494;SDS011;69819;48.798;11.770;2023-07-13T15:48:19;0.70;;;0.70;;